createdAt,value
2022-08-11T00:01:50.842Z,22.00
2022-08-11T00:04:19.881Z,21.90
2022-08-11T00:06:48.181Z,21.90
2022-08-11T00:09:22.501Z,21.90
2022-08-11T00:11:58.485Z,21.80
2022-08-11T00:14:36.915Z,21.80
2022-08-11T00:17:10.879Z,21.80
2022-08-11T00:20:14.629Z,21.80
2022-08-11T00:22:30.370Z,21.70
2022-08-11T00:25:02.133Z,21.70
2022-08-11T00:27:36.970Z,21.70
2022-08-11T00:30:05.666Z,21.60
2022-08-11T00:32:33.483Z,21.60
2022-08-11T00:35:55.151Z,21.60
2022-08-11T00:37:50.833Z,21.60
2022-08-11T00:40:23.242Z,21.50
2022-08-11T00:43:10.802Z,21.50
2022-08-11T00:46:06.321Z,21.50
2022-08-11T00:48:49.330Z,21.40
2022-08-11T00:51:22.386Z,21.40
2022-08-11T00:54:03.020Z,21.30
2022-08-11T00:56:36.839Z,21.30
2022-08-11T00:59:34.943Z,21.30
2022-08-11T01:02:05.824Z,21.30
2022-08-11T01:04:55.891Z,21.30
2022-08-11T01:07:59.080Z,21.20
2022-08-11T01:10:47.752Z,21.20
2022-08-11T01:13:19.149Z,21.20
2022-08-11T01:16:06.496Z,21.20
2022-08-11T01:18:52.218Z,21.10
2022-08-11T01:21:38.110Z,21.10
2022-08-11T01:24:23.494Z,21.10
2022-08-11T01:27:19.133Z,21.00
2022-08-11T01:29:52.729Z,21.00
2022-08-11T01:32:39.519Z,21.00
2022-08-11T01:35:21.996Z,21.00
2022-08-11T01:37:59.145Z,20.90
2022-08-11T01:40:44.992Z,20.90
2022-08-11T01:43:33.506Z,20.90
2022-08-11T01:46:07.061Z,20.80
2022-08-11T01:48:39.023Z,20.80
2022-08-11T01:51:08.777Z,20.80
2022-08-11T01:54:03.702Z,20.70
2022-08-11T01:56:42.378Z,20.70
2022-08-11T01:59:28.586Z,20.70
2022-08-11T02:02:20.563Z,20.70
2022-08-11T02:04:57.749Z,20.60
2022-08-11T02:07:27.961Z,20.60
2022-08-11T02:09:57.953Z,20.60
2022-08-11T02:12:32.958Z,20.60
2022-08-11T02:15:05.111Z,20.50
2022-08-11T02:17:39.122Z,20.50
2022-08-11T02:20:38.865Z,20.50
2022-08-11T02:24:05.622Z,20.50
2022-08-11T02:26:24.502Z,20.50
2022-08-11T02:28:51.462Z,20.40
2022-08-11T02:32:24.200Z,20.40
2022-08-11T02:34:59.883Z,20.40
2022-08-11T02:37:52.049Z,20.40
2022-08-11T02:40:25.268Z,20.30
2022-08-11T02:43:12.962Z,20.30
2022-08-11T02:45:48.753Z,20.20
2022-08-11T02:48:51.506Z,20.20
2022-08-11T02:51:37.518Z,20.20
2022-08-11T02:54:11.070Z,20.10
2022-08-11T02:56:44.566Z,20.20
2022-08-11T02:59:42.051Z,20.10
2022-08-11T03:02:28.405Z,20.10
2022-08-11T03:04:58.710Z,20.10
2022-08-11T03:07:31.425Z,20.00
2022-08-11T03:10:05.814Z,20.00
2022-08-11T03:13:07.713Z,20.00
2022-08-11T03:16:02.800Z,19.90
2022-08-11T03:18:34.712Z,19.90
2022-08-11T03:22:01.661Z,19.90
2022-08-11T03:24:31.297Z,19.90
2022-08-11T03:27:01.753Z,19.80
2022-08-11T03:29:28.995Z,19.80
2022-08-11T03:32:03.723Z,19.80
2022-08-11T03:34:33.340Z,19.80
2022-08-11T03:37:17.689Z,19.70
2022-08-11T03:39:52.698Z,19.70
2022-08-11T03:42:30.321Z,19.70
2022-08-11T03:45:03.379Z,19.70
2022-08-11T03:47:33.910Z,19.70
2022-08-11T03:50:04.763Z,19.70
2022-08-11T03:52:46.889Z,19.60
2022-08-11T03:55:22.125Z,19.60
2022-08-11T03:57:49.292Z,19.60
2022-08-11T04:00:23.257Z,19.50
2022-08-11T04:03:08.791Z,19.50
2022-08-11T04:06:02.698Z,19.50
2022-08-11T04:08:48.853Z,19.50
2022-08-11T04:11:34.609Z,19.50
2022-08-11T04:14:21.384Z,19.40
2022-08-11T04:17:00.654Z,19.40
2022-08-11T04:19:46.722Z,19.30
2022-08-11T04:22:17.294Z,19.30
2022-08-11T04:24:50.449Z,19.30
2022-08-11T04:27:20.625Z,19.30
2022-08-11T04:30:03.094Z,19.30
2022-08-11T04:32:51.266Z,19.20
2022-08-11T04:35:31.120Z,19.20
2022-08-11T04:38:14.071Z,19.20
2022-08-11T04:40:56.719Z,19.20
2022-08-11T04:43:26.641Z,19.10
2022-08-11T04:46:13.497Z,19.10
2022-08-11T04:49:26.342Z,19.10
2022-08-11T04:52:22.659Z,19.00
2022-08-11T04:55:08.089Z,19.00
2022-08-11T04:58:02.901Z,19.00
2022-08-11T05:01:01.085Z,19.00
2022-08-11T05:03:47.989Z,19.00
2022-08-11T05:06:14.868Z,18.90
2022-08-11T05:08:51.134Z,18.90
2022-08-11T05:11:24.289Z,18.90
2022-08-11T05:14:11.343Z,18.90
2022-08-11T05:17:10.867Z,18.90
2022-08-11T05:19:58.536Z,18.90
2022-08-11T05:22:48.607Z,18.90
2022-08-11T05:26:42.533Z,18.90
2022-08-11T05:28:53.477Z,18.90
2022-08-11T05:31:45.112Z,18.90
2022-08-11T05:34:31.756Z,18.90
2022-08-11T05:37:25.810Z,18.90
2022-08-11T05:40:24.726Z,18.90
2022-08-11T05:43:14.465Z,18.90
2022-08-11T05:46:03.727Z,18.90
2022-08-11T05:48:54.703Z,18.90
2022-08-11T05:51:52.310Z,18.90
2022-08-11T05:54:42.516Z,18.90
2022-08-11T05:57:45.487Z,18.90
2022-08-11T06:00:11.862Z,18.90
2022-08-11T06:02:42.865Z,18.90
2022-08-11T06:05:10.599Z,18.90
2022-08-11T06:07:48.755Z,18.90
2022-08-11T06:10:55.126Z,19.00
2022-08-11T06:13:24.594Z,19.00
2022-08-11T06:15:55.954Z,19.00
2022-08-11T06:18:25.048Z,19.10
2022-08-11T06:20:54.151Z,19.10
2022-08-11T06:23:23.921Z,19.10
2022-08-11T06:25:52.169Z,19.10
2022-08-11T06:28:21.395Z,19.20
2022-08-11T06:30:49.074Z,19.20
2022-08-11T06:33:18.071Z,19.20
2022-08-11T06:36:17.455Z,19.30
2022-08-11T06:38:50.617Z,19.30
2022-08-11T06:41:32.497Z,19.40
2022-08-11T06:44:10.564Z,19.40
2022-08-11T06:46:41.703Z,19.50
2022-08-11T06:49:29.181Z,19.50
2022-08-11T06:52:01.659Z,19.60
2022-08-11T06:54:32.625Z,19.60
2022-08-11T06:57:29.910Z,19.70
2022-08-11T07:00:28.258Z,19.70
2022-08-11T07:03:03.495Z,19.80
2022-08-11T07:05:34.360Z,19.90
2022-08-11T07:08:38.912Z,19.90
2022-08-11T07:11:52.868Z,19.90
2022-08-11T07:14:41.703Z,20.00
2022-08-11T07:17:10.889Z,20.10
2022-08-11T07:19:57.720Z,20.20
2022-08-11T07:22:44.194Z,20.30
2022-08-11T07:25:38.014Z,20.30
2022-08-11T07:28:47.453Z,20.30
2022-08-11T07:31:16.947Z,20.40
2022-08-11T07:34:07.401Z,20.50
2022-08-11T07:36:41.004Z,20.60
2022-08-11T07:39:12.904Z,20.60
2022-08-11T07:41:39.969Z,20.70
2022-08-11T07:44:09.846Z,20.70
2022-08-11T07:47:01.980Z,20.80
2022-08-11T07:49:49.613Z,20.80
2022-08-11T07:52:33.673Z,20.90
2022-08-11T07:55:10.328Z,21.00
2022-08-11T07:58:16.520Z,21.10
2022-08-11T08:01:10.177Z,21.10
2022-08-11T08:03:57.374Z,21.20
2022-08-11T08:06:43.059Z,21.30
2022-08-11T08:09:29.035Z,21.40
2022-08-11T08:12:15.176Z,21.50
2022-08-11T08:15:01.355Z,21.60
2022-08-11T08:18:09.288Z,21.70
2022-08-11T08:20:39.786Z,21.80
2022-08-11T08:23:08.387Z,21.90
2022-08-11T08:25:36.517Z,22.00
2022-08-11T08:28:09.546Z,22.10
2022-08-11T08:30:50.852Z,22.20
2022-08-11T08:33:22.392Z,22.30
2022-08-11T08:35:54.532Z,22.30
2022-08-11T08:38:23.426Z,22.40
2022-08-11T08:40:54.716Z,22.50
2022-08-11T08:43:23.648Z,22.60
2022-08-11T08:45:53.896Z,22.70
2022-08-11T08:48:23.178Z,22.80
2022-08-11T08:51:15.352Z,22.90
2022-08-11T08:53:52.547Z,23.00
2022-08-11T08:56:28.242Z,23.10
2022-08-11T08:58:58.022Z,23.30
2022-08-11T09:01:26.111Z,23.40
2022-08-11T09:04:05.412Z,23.50
2022-08-11T09:06:39.888Z,23.60
2022-08-11T09:09:12.252Z,23.70
2022-08-11T09:11:50.747Z,23.80
2022-08-11T09:14:18.508Z,23.90
2022-08-11T09:16:45.948Z,24.00
2022-08-11T09:19:17.750Z,24.10
2022-08-11T09:22:06.216Z,24.30
2022-08-11T09:24:52.883Z,24.40
2022-08-11T09:27:20.929Z,24.50
2022-08-11T09:29:48.266Z,24.70
2022-08-11T09:32:19.328Z,24.80
2022-08-11T09:34:46.718Z,25.00
2022-08-11T09:37:55.294Z,25.40
2022-08-11T09:40:32.583Z,25.60
2022-08-11T09:43:20.268Z,26.10
2022-08-11T09:45:56.685Z,26.50
2022-08-11T09:48:25.049Z,27.20
2022-08-11T09:50:55.982Z,28.10
2022-08-11T09:53:35.731Z,29.00
2022-08-11T09:56:29.703Z,30.00
2022-08-11T09:58:57.019Z,30.90
2022-08-11T10:01:28.595Z,31.90
2022-08-11T10:03:57.953Z,32.70
2022-08-11T10:06:44.092Z,33.50
2022-08-11T10:09:19.693Z,34.20
2022-08-11T10:11:55.396Z,35.00
2022-08-11T10:14:44.869Z,35.50
2022-08-11T10:17:13.636Z,36.00
2022-08-11T10:19:42.631Z,36.50
2022-08-11T10:22:28.088Z,37.10
2022-08-11T10:25:19.961Z,37.60
2022-08-11T10:28:28.644Z,38.00
2022-08-11T10:30:57.467Z,38.20
2022-08-11T10:33:57.864Z,38.60
2022-08-11T10:36:31.150Z,39.10
2022-08-11T10:38:58.499Z,39.50
2022-08-11T10:42:02.082Z,39.80
2022-08-11T10:44:39.297Z,39.90
2022-08-11T10:47:25.851Z,40.20
2022-08-11T10:50:12.380Z,40.30
2022-08-11T10:52:58.855Z,40.50
2022-08-11T10:55:44.790Z,40.70
2022-08-11T10:58:30.982Z,41.00
2022-08-11T11:00:59.741Z,41.20
2022-08-11T11:03:28.071Z,41.40
2022-08-11T11:06:13.265Z,41.70
2022-08-11T11:08:57.672Z,41.80
2022-08-11T11:12:11.659Z,42.00
2022-08-11T11:14:59.426Z,42.10
2022-08-11T11:17:50.519Z,42.40
2022-08-11T11:20:36.154Z,42.70
2022-08-11T11:23:08.607Z,42.90
2022-08-11T11:25:35.582Z,43.10
2022-08-11T11:28:02.429Z,43.20
2022-08-11T11:30:33.369Z,43.20
2022-08-11T11:33:15.162Z,43.10
2022-08-11T11:35:55.608Z,43.00
2022-08-11T11:38:22.647Z,43.00
2022-08-11T11:41:09.609Z,43.10
2022-08-11T11:43:37.122Z,43.20
2022-08-11T11:46:08.347Z,43.40
2022-08-11T11:48:35.812Z,43.70
2022-08-11T11:51:02.995Z,43.80
2022-08-11T11:53:30.106Z,43.90
2022-08-11T11:55:59.148Z,44.00
2022-08-11T11:58:45.979Z,44.00
2022-08-11T12:01:16.581Z,44.00
2022-08-11T12:03:45.258Z,44.00
2022-08-11T12:06:14.368Z,44.10
2022-08-11T12:08:42.094Z,44.20
2022-08-11T12:11:31.796Z,44.20
2022-08-11T12:14:00.517Z,44.30
2022-08-11T12:16:33.124Z,44.40
2022-08-11T12:19:05.466Z,44.40
2022-08-11T12:21:32.558Z,44.40
2022-08-11T12:24:20.230Z,44.50
2022-08-11T12:26:54.369Z,44.50
2022-08-11T12:29:39.915Z,44.40
2022-08-11T12:32:08.584Z,44.50
2022-08-11T12:34:36.633Z,44.50
2022-08-11T12:37:13.709Z,44.60
2022-08-11T12:40:15.644Z,44.60
2022-08-11T12:43:21.844Z,44.60
2022-08-11T12:45:58.589Z,44.60
2022-08-11T12:48:59.136Z,44.60
2022-08-11T12:52:00.795Z,44.60
2022-08-11T12:54:36.798Z,44.60
2022-08-11T12:57:45.585Z,44.70
2022-08-11T13:00:30.671Z,44.70
2022-08-11T13:03:16.739Z,44.80
2022-08-11T13:05:45.429Z,44.70
2022-08-11T13:08:15.286Z,44.70
2022-08-11T13:11:01.758Z,44.60
2022-08-11T13:13:54.782Z,44.60
2022-08-11T13:16:17.087Z,44.50
2022-08-11T13:18:45.179Z,44.40
2022-08-11T13:21:19.991Z,44.30
2022-08-11T13:24:01.323Z,44.20
2022-08-11T13:26:47.913Z,44.10
2022-08-11T13:29:18.960Z,43.90
2022-08-11T13:31:46.419Z,43.70
2022-08-11T13:34:13.649Z,43.50
2022-08-11T13:36:41.602Z,43.20
2022-08-11T13:39:09.714Z,43.00
2022-08-11T13:41:39.249Z,42.60
2022-08-11T13:44:06.974Z,42.20
2022-08-11T13:46:34.215Z,41.80
2022-08-11T13:49:02.407Z,41.40
2022-08-11T13:51:34.432Z,41.00
2022-08-11T13:54:04.537Z,40.60
2022-08-11T13:56:32.448Z,40.20
2022-08-11T13:59:00.166Z,39.90
2022-08-11T14:02:04.011Z,39.50
2022-08-11T14:04:32.433Z,39.20
2022-08-11T14:07:01.011Z,38.70
2022-08-11T14:09:28.981Z,38.40
2022-08-11T14:12:22.402Z,38.10
2022-08-11T14:15:07.261Z,37.80
2022-08-11T14:17:48.089Z,37.50
2022-08-11T14:20:38.966Z,37.30
2022-08-11T14:23:04.820Z,37.20
2022-08-11T14:26:01.111Z,37.00
2022-08-11T14:28:31.714Z,36.80
2022-08-11T14:31:03.521Z,36.70
2022-08-11T14:33:58.705Z,36.50
2022-08-11T14:36:20.771Z,36.30
2022-08-11T14:38:48.099Z,36.20
2022-08-11T14:41:33.690Z,36.00
2022-08-11T14:44:19.335Z,35.90
2022-08-11T14:47:23.692Z,35.70
2022-08-11T14:50:02.575Z,35.70
2022-08-11T14:52:39.113Z,35.50
2022-08-11T14:55:25.878Z,35.30
2022-08-11T14:57:57.002Z,35.20
2022-08-11T15:00:25.020Z,35.10
2022-08-11T15:03:10.671Z,35.00
2022-08-11T15:05:45.120Z,34.90
2022-08-11T15:08:43.508Z,34.70
2022-08-11T15:11:31.763Z,34.60
2022-08-11T15:14:00.135Z,34.40
2022-08-11T15:16:46.024Z,34.20
2022-08-11T15:19:13.797Z,34.00
2022-08-11T15:21:59.300Z,33.90
2022-08-11T15:24:27.274Z,33.70
2022-08-11T15:27:17.484Z,33.50
2022-08-11T15:30:03.394Z,33.40
2022-08-11T15:32:50.079Z,33.20
2022-08-11T15:35:39.689Z,33.00
2022-08-11T15:38:07.617Z,32.80
2022-08-11T15:40:55.785Z,32.70
2022-08-11T15:43:53.269Z,32.50
2022-08-11T15:46:23.157Z,32.40
2022-08-11T15:48:58.115Z,32.30
2022-08-11T15:51:46.210Z,32.20
2022-08-11T15:54:17.378Z,32.00
2022-08-11T15:56:45.093Z,31.90
2022-08-11T15:59:42.487Z,31.80
2022-08-11T16:02:32.050Z,31.60
2022-08-11T16:05:00.326Z,31.50
2022-08-11T16:07:29.466Z,31.40
2022-08-11T16:10:06.691Z,31.30
2022-08-11T16:13:05.371Z,31.20
2022-08-11T16:15:58.337Z,31.10
2022-08-11T16:18:40.612Z,31.00
2022-08-11T16:21:08.913Z,30.90
2022-08-11T16:23:55.702Z,30.80
2022-08-11T16:27:11.434Z,30.70
2022-08-11T16:29:10.860Z,30.70
2022-08-11T16:31:38.849Z,30.60
2022-08-11T16:34:26.610Z,30.60
2022-08-11T16:37:14.075Z,30.50
2022-08-11T16:39:41.982Z,30.40
2022-08-11T16:46:12.484Z,30.30
2022-08-11T16:48:41.520Z,30.30
2022-08-11T16:51:10.700Z,30.20
2022-08-11T16:54:00.011Z,30.20
2022-08-11T16:56:35.803Z,30.10
2022-08-11T16:59:15.953Z,30.10
2022-08-11T17:01:45.857Z,30.00
2022-08-11T17:04:43.353Z,29.90
2022-08-11T17:07:42.198Z,29.90
2022-08-11T17:10:53.286Z,29.80
2022-08-11T17:13:42.546Z,29.80
2022-08-11T17:16:12.917Z,29.70
2022-08-11T17:18:58.797Z,29.70
2022-08-11T17:21:29.503Z,29.60
2022-08-11T17:24:01.050Z,29.50
2022-08-11T17:26:51.703Z,29.50
2022-08-11T17:29:23.719Z,29.40
2022-08-11T17:32:10.014Z,29.40
2022-08-11T17:34:55.657Z,29.30
2022-08-11T17:37:23.257Z,29.30
2022-08-11T17:39:52.414Z,29.30
2022-08-11T17:42:38.192Z,29.30
2022-08-11T17:45:24.290Z,29.20
2022-08-11T17:48:10.040Z,29.20
2022-08-11T17:50:37.705Z,29.20
2022-08-11T17:53:23.875Z,29.20
2022-08-11T17:56:10.238Z,29.10
2022-08-11T17:58:57.526Z,29.10
2022-08-11T18:01:25.183Z,29.10
2022-08-11T18:03:57.971Z,29.10
2022-08-11T18:06:34.920Z,29.10
2022-08-11T18:09:22.883Z,29.00
2022-08-11T18:12:11.874Z,29.00
2022-08-11T18:14:58.982Z,28.90
2022-08-11T18:17:44.831Z,28.90
2022-08-11T18:20:30.545Z,28.90
2022-08-11T18:23:16.922Z,28.80
2022-08-11T18:26:07.533Z,28.80
2022-08-11T18:29:03.115Z,28.80
2022-08-11T18:31:51.387Z,28.70
2022-08-11T18:34:39.996Z,28.70
2022-08-11T18:37:29.569Z,28.70
2022-08-11T18:40:27.151Z,28.60
2022-08-11T18:43:15.723Z,28.60
2022-08-11T18:46:06.401Z,28.50
2022-08-11T18:48:55.369Z,28.40
2022-08-11T18:51:42.507Z,28.40
2022-08-11T18:54:29.111Z,28.30
2022-08-11T18:57:16.278Z,28.30
2022-08-11T19:00:02.604Z,28.20
2022-08-11T19:02:50.257Z,28.20
2022-08-11T19:06:08.361Z,28.10
2022-08-11T19:08:47.554Z,28.00
2022-08-11T19:11:33.758Z,28.00
2022-08-11T19:14:22.970Z,27.90
2022-08-11T19:17:09.706Z,27.90
2022-08-11T19:19:56.016Z,27.80
2022-08-11T19:22:41.724Z,27.80
2022-08-11T19:25:29.196Z,27.70
2022-08-11T19:28:16.347Z,27.70
2022-08-11T19:31:02.167Z,27.70
2022-08-11T19:33:59.993Z,27.60
2022-08-11T19:36:53.988Z,27.60
2022-08-11T19:39:39.915Z,27.60
2022-08-11T19:42:29.258Z,27.50
2022-08-11T19:45:16.035Z,27.40
2022-08-11T19:48:28.504Z,27.40
2022-08-11T19:51:09.440Z,27.30
2022-08-11T19:53:55.718Z,27.20
2022-08-11T19:56:43.163Z,27.20
2022-08-11T19:59:28.902Z,27.20
2022-08-11T20:02:14.890Z,27.10
2022-08-11T20:05:01.285Z,27.10
2022-08-11T20:07:47.857Z,27.00
2022-08-11T20:10:35.557Z,27.00
2022-08-11T20:13:21.955Z,26.90
2022-08-11T20:16:07.905Z,26.80
2022-08-11T20:18:54.421Z,26.80
2022-08-11T20:21:40.081Z,26.70
2022-08-11T20:24:26.674Z,26.70
2022-08-11T20:27:24.756Z,26.60
2022-08-11T20:30:11.524Z,26.60
2022-08-11T20:32:57.997Z,26.50
2022-08-11T20:35:44.319Z,26.50
2022-08-11T20:38:30.467Z,26.40
2022-08-11T20:41:16.045Z,26.40
2022-08-11T20:44:06.082Z,26.30
2022-08-11T20:46:57.658Z,26.30
2022-08-11T20:50:03.130Z,26.20
2022-08-11T20:52:50.414Z,26.20
2022-08-11T20:55:55.202Z,26.10
2022-08-11T21:01:52.058Z,26.00
2022-08-11T21:04:54.281Z,25.90
2022-08-11T21:07:42.366Z,25.90
2022-08-11T21:10:29.027Z,25.90
2022-08-11T21:13:24.208Z,25.80
2022-08-11T21:16:24.985Z,25.70
2022-08-11T21:19:59.604Z,25.70
2022-08-11T21:22:38.105Z,25.60
2022-08-11T21:25:27.126Z,25.60
2022-08-11T21:28:16.167Z,25.50
2022-08-11T21:31:01.791Z,25.50
2022-08-11T21:33:49.844Z,25.50
2022-08-11T21:36:36.532Z,25.40
2022-08-11T21:39:25.084Z,25.40
2022-08-11T21:42:12.549Z,25.30
2022-08-11T21:45:00.303Z,25.30
2022-08-11T21:47:47.456Z,25.20
2022-08-11T21:50:32.872Z,25.20
2022-08-11T21:53:18.576Z,25.20
2022-08-11T21:56:04.727Z,25.10
2022-08-11T21:58:51.278Z,25.00
2022-08-11T22:01:37.579Z,25.00
2022-08-11T22:04:23.731Z,24.90
2022-08-11T22:07:09.978Z,24.90
2022-08-11T22:09:56.638Z,24.80
2022-08-11T22:12:45.312Z,24.70
2022-08-11T22:15:31.676Z,24.70
2022-08-11T22:18:20.622Z,24.60
2022-08-11T22:21:08.428Z,24.60
2022-08-11T22:23:58.857Z,24.50
2022-08-11T22:26:47.451Z,24.50
2022-08-11T22:29:38.312Z,24.30
2022-08-11T22:32:37.812Z,24.30
2022-08-11T22:35:24.507Z,24.30
2022-08-11T22:38:15.213Z,24.20
2022-08-11T22:41:00.811Z,24.20
2022-08-11T22:43:46.408Z,24.10
2022-08-11T22:46:34.010Z,24.00
2022-08-11T22:49:20.572Z,24.00
2022-08-11T22:52:06.780Z,24.00
2022-08-11T22:54:53.109Z,23.90
2022-08-11T22:57:39.755Z,23.90
2022-08-11T23:00:25.347Z,23.80
2022-08-11T23:03:36.866Z,23.80
2022-08-11T23:06:24.078Z,23.70
2022-08-11T23:09:09.797Z,23.70
2022-08-11T23:12:06.872Z,23.60
2022-08-11T23:14:53.547Z,23.60
2022-08-11T23:17:39.210Z,23.50
2022-08-11T23:20:40.722Z,23.40
2022-08-11T23:23:31.157Z,23.40
2022-08-11T23:26:17.614Z,23.40
2022-08-11T23:29:06.042Z,23.30
2022-08-11T23:31:53.444Z,23.30
2022-08-11T23:35:03.732Z,23.20
2022-08-11T23:37:51.077Z,23.20
2022-08-11T23:40:36.690Z,23.10
2022-08-11T23:43:23.297Z,23.10
2022-08-11T23:46:08.851Z,23.00
2022-08-11T23:48:56.530Z,23.00
2022-08-11T23:51:42.746Z,22.90
2022-08-11T23:54:32.679Z,22.90
2022-08-11T23:57:22.485Z,22.80
